createdAt,value
2023-04-18T00:02:11.001Z,74.51
2023-04-18T00:04:51.382Z,74.33
2023-04-18T00:07:18.268Z,73.74
2023-04-18T00:09:46.407Z,73.31
2023-04-18T00:12:13.344Z,74.02
2023-04-18T00:14:41.222Z,73.23
2023-04-18T00:17:09.662Z,73.18
2023-04-18T00:19:37.881Z,72.89
2023-04-18T00:22:05.295Z,73.38
2023-04-18T00:24:33.407Z,73.39
2023-04-18T00:27:01.850Z,70.47
2023-04-18T00:29:32.540Z,69.43
2023-04-18T00:31:59.590Z,71.00
2023-04-18T00:34:26.670Z,70.75
2023-04-18T00:37:00.836Z,69.28
2023-04-18T00:39:27.638Z,69.63
2023-04-18T00:41:54.412Z,68.68
2023-04-18T00:44:21.188Z,68.20
2023-04-18T00:47:01.613Z,68.69
2023-04-18T00:49:28.726Z,70.00
2023-04-18T00:51:57.468Z,69.26
2023-04-18T00:54:24.991Z,69.75
2023-04-18T00:56:58.675Z,67.25
2023-04-18T00:59:25.998Z,69.31
2023-04-18T01:01:53.301Z,65.75
2023-04-18T01:04:20.583Z,64.16
2023-04-18T01:06:48.507Z,66.17
2023-04-18T01:09:31.062Z,67.71
2023-04-18T01:11:57.800Z,66.03
2023-04-18T01:14:59.915Z,66.88
2023-04-18T01:17:29.023Z,70.62
2023-04-18T01:19:57.097Z,69.12
2023-04-18T01:22:24.500Z,67.16
2023-04-18T01:24:52.010Z,65.00
2023-04-18T01:27:19.922Z,64.04
2023-04-18T01:29:46.879Z,64.35
2023-04-18T01:32:15.103Z,63.99
2023-04-18T01:34:41.846Z,63.88
2023-04-18T01:37:15.797Z,66.16
2023-04-18T01:39:42.460Z,68.03
2023-04-18T01:42:31.037Z,69.04
2023-04-18T01:44:57.935Z,69.21
2023-04-18T01:47:50.810Z,69.03
2023-04-18T01:50:17.517Z,68.25
2023-04-18T01:52:44.044Z,69.73
2023-04-18T01:55:11.022Z,70.77
2023-04-18T01:57:38.511Z,66.31
2023-04-18T02:00:06.363Z,64.78
2023-04-18T02:02:33.726Z,66.17
2023-04-18T02:05:22.263Z,65.46
2023-04-18T02:07:50.394Z,64.84
2023-04-18T02:10:17.435Z,64.03
2023-04-18T02:12:51.824Z,65.43
2023-04-18T02:15:18.901Z,65.36
2023-04-18T02:17:45.994Z,65.07
2023-04-18T02:20:13.855Z,68.55
2023-04-18T02:22:40.859Z,70.70
2023-04-18T02:25:07.995Z,69.73
2023-04-18T02:27:36.742Z,70.00
2023-04-18T02:30:03.749Z,66.81
2023-04-18T02:32:44.772Z,66.37
2023-04-18T02:35:13.907Z,65.77
2023-04-18T02:37:40.901Z,64.98
2023-04-18T02:40:08.392Z,66.73
2023-04-18T02:42:36.386Z,67.53
2023-04-18T02:45:04.040Z,70.21
2023-04-18T02:47:35.416Z,69.26
2023-04-18T02:50:10.858Z,68.78
2023-04-18T02:52:37.690Z,68.24
2023-04-18T02:55:13.185Z,70.97
2023-04-18T02:57:39.972Z,72.85
2023-04-18T03:00:08.796Z,73.87
2023-04-18T03:02:36.970Z,75.89
2023-04-18T03:05:03.927Z,76.11
2023-04-18T03:07:31.140Z,76.16
2023-04-18T03:09:58.234Z,76.64
2023-04-18T03:12:24.970Z,77.21
2023-04-18T03:15:08.666Z,75.31
2023-04-18T03:17:36.180Z,74.17
2023-04-18T03:20:05.862Z,74.42
2023-04-18T03:22:33.305Z,74.70
2023-04-18T03:25:07.891Z,77.27
2023-04-18T03:27:35.326Z,74.40
2023-04-18T03:30:11.018Z,74.84
2023-04-18T03:32:39.343Z,74.74
2023-04-18T03:35:22.347Z,75.43
2023-04-18T03:37:51.190Z,76.50
2023-04-18T03:40:19.296Z,75.05
2023-04-18T03:42:46.105Z,75.11
2023-04-18T03:45:13.902Z,75.17
2023-04-18T03:47:40.915Z,74.29
2023-04-18T03:50:07.989Z,72.70
2023-04-18T03:52:35.169Z,72.67
2023-04-18T03:55:10.772Z,72.09
2023-04-18T03:57:37.899Z,70.21
2023-04-18T04:00:06.302Z,71.88
2023-04-18T04:02:48.122Z,73.38
2023-04-18T04:05:15.032Z,72.96
2023-04-18T04:07:41.973Z,72.64
2023-04-18T04:10:32.426Z,71.40
2023-04-18T04:12:59.436Z,72.88
2023-04-18T04:15:26.394Z,73.07
2023-04-18T04:18:02.686Z,73.17
2023-04-18T04:20:29.668Z,73.42
2023-04-18T04:23:02.883Z,70.34
2023-04-18T04:25:31.724Z,69.92
2023-04-18T04:28:01.746Z,72.78
2023-04-18T04:30:34.684Z,73.44
2023-04-18T04:33:02.118Z,74.15
2023-04-18T04:35:29.173Z,73.64
2023-04-18T04:37:56.839Z,71.90
2023-04-18T04:40:24.279Z,70.96
2023-04-18T04:42:54.578Z,70.94
2023-04-18T04:45:22.066Z,69.45
2023-04-18T04:47:50.113Z,70.03
2023-04-18T04:50:17.982Z,69.74
2023-04-18T04:52:44.472Z,69.86
2023-04-18T04:55:11.230Z,66.23
2023-04-18T04:57:37.797Z,66.72
2023-04-18T05:00:08.235Z,69.16
2023-04-18T05:02:35.108Z,69.49
2023-04-18T05:05:02.004Z,69.25
2023-04-18T05:07:34.610Z,67.01
2023-04-18T05:10:05.811Z,69.53
2023-04-18T05:12:32.492Z,70.94
2023-04-18T05:14:59.100Z,71.53
2023-04-18T05:17:25.685Z,71.83
2023-04-18T05:19:52.256Z,72.18
2023-04-18T05:22:18.731Z,69.36
2023-04-18T05:24:45.233Z,70.29
2023-04-18T05:27:12.171Z,69.67
2023-04-18T05:29:38.525Z,70.98
2023-04-18T05:32:05.152Z,69.93
2023-04-18T05:34:32.024Z,69.97
2023-04-18T05:36:58.635Z,68.62
2023-04-18T05:39:25.315Z,68.11
2023-04-18T05:41:51.859Z,68.36
2023-04-18T05:44:18.744Z,69.94
2023-04-18T05:46:45.999Z,70.42
2023-04-18T05:49:12.767Z,69.98
2023-04-18T05:51:39.161Z,70.06
2023-04-18T05:54:05.535Z,69.02
2023-04-18T05:56:31.987Z,71.49
2023-04-18T05:58:58.573Z,71.69
2023-04-18T06:01:24.924Z,74.90
2023-04-18T06:03:51.546Z,73.84
2023-04-18T06:06:18.268Z,70.51
2023-04-18T06:08:45.018Z,67.04
2023-04-18T06:11:11.649Z,66.90
2023-04-18T06:13:38.181Z,70.01
2023-04-18T06:16:05.176Z,71.53
2023-04-18T06:18:31.542Z,70.54
2023-04-18T06:20:57.915Z,68.79
2023-04-18T06:23:24.327Z,66.15
2023-04-18T06:25:51.713Z,67.25
2023-04-18T06:28:18.076Z,66.29
2023-04-18T06:30:44.582Z,66.59
2023-04-18T06:33:11.398Z,67.70
2023-04-18T06:35:38.622Z,67.46
2023-04-18T06:38:04.960Z,68.25
2023-04-18T06:40:31.510Z,66.73
2023-04-18T06:42:57.903Z,65.39
2023-04-18T06:45:25.973Z,65.39
2023-04-18T06:47:53.258Z,69.39
2023-04-18T06:50:19.758Z,68.94
2023-04-18T06:52:46.241Z,67.29
2023-04-18T06:55:13.975Z,70.31
2023-04-18T06:57:41.681Z,69.50
2023-04-18T07:00:08.970Z,66.50
2023-04-18T07:02:36.338Z,64.01
2023-04-18T07:05:04.068Z,63.22
2023-04-18T07:07:31.019Z,65.96
2023-04-18T07:09:57.752Z,65.97
2023-04-18T07:12:24.493Z,65.77
2023-04-18T07:14:54.499Z,67.56
2023-04-18T07:17:21.659Z,65.30
2023-04-18T07:19:48.231Z,62.13
2023-04-18T07:22:14.706Z,61.67
2023-04-18T07:24:42.481Z,61.01
2023-04-18T07:27:09.872Z,61.36
2023-04-18T07:29:36.623Z,61.29
2023-04-18T07:32:03.410Z,60.30
2023-04-18T07:34:30.226Z,58.52
2023-04-18T07:36:57.189Z,62.89
2023-04-18T07:39:24.155Z,61.22
2023-04-18T07:41:50.772Z,62.87
2023-04-18T07:44:18.633Z,60.86
2023-04-18T07:46:46.451Z,63.76
2023-04-18T07:49:14.320Z,62.92
2023-04-18T07:51:41.013Z,62.43
2023-04-18T07:54:07.667Z,61.48
2023-04-18T07:56:34.145Z,64.57
2023-04-18T07:59:01.655Z,68.25
2023-04-18T08:01:28.392Z,71.37
2023-04-18T08:03:56.715Z,68.27
2023-04-18T08:06:23.319Z,68.94
2023-04-18T08:08:49.597Z,68.97
2023-04-18T08:11:17.244Z,69.80
2023-04-18T08:13:43.887Z,71.95
2023-04-18T08:16:10.713Z,72.30
2023-04-18T08:18:39.331Z,67.82
2023-04-18T08:21:05.771Z,65.99
2023-04-18T08:23:32.474Z,67.14
2023-04-18T08:26:01.744Z,67.75
2023-04-18T08:28:28.468Z,66.57
2023-04-18T08:30:56.619Z,70.44
2023-04-18T08:33:24.194Z,64.69
2023-04-18T08:35:53.906Z,66.08
2023-04-18T08:38:20.409Z,67.28
2023-04-18T08:40:47.276Z,67.29
2023-04-18T08:43:15.068Z,65.09
2023-04-18T08:45:45.815Z,61.35
2023-04-18T08:48:14.532Z,57.97
2023-04-18T08:50:41.618Z,64.95
2023-04-18T08:53:08.543Z,64.70
2023-04-18T08:55:36.570Z,62.77
2023-04-18T08:58:03.346Z,62.11
2023-04-18T09:00:30.585Z,60.12
2023-04-18T09:02:57.608Z,58.58
2023-04-18T09:05:25.267Z,57.83
2023-04-18T09:07:53.819Z,58.25
2023-04-18T09:10:31.024Z,61.26
2023-04-18T09:12:58.159Z,61.99
2023-04-18T09:15:27.373Z,62.81
2023-04-18T09:17:56.461Z,61.96
2023-04-18T09:20:35.241Z,58.93
2023-04-18T09:23:03.710Z,55.42
2023-04-18T09:25:34.631Z,54.06
2023-04-18T09:28:02.549Z,55.61
2023-04-18T09:30:38.028Z,58.03
2023-04-18T09:33:07.387Z,60.10
2023-04-18T09:35:35.140Z,62.82
2023-04-18T09:38:01.906Z,59.45
2023-04-18T09:40:28.680Z,56.72
2023-04-18T09:42:55.489Z,54.54
2023-04-18T09:45:22.688Z,54.46
2023-04-18T09:47:49.101Z,57.66
2023-04-18T09:50:18.754Z,62.09
2023-04-18T09:52:45.622Z,64.07
2023-04-18T09:55:16.949Z,63.55
2023-04-18T09:57:47.580Z,65.59
2023-04-18T10:00:25.646Z,63.29
2023-04-18T10:02:54.869Z,62.01
2023-04-18T10:05:24.208Z,64.47
2023-04-18T10:07:51.398Z,64.71
2023-04-18T10:10:18.312Z,67.52
2023-04-18T10:12:47.827Z,68.52
2023-04-18T10:15:15.737Z,69.22
2023-04-18T10:18:02.713Z,69.37
2023-04-18T10:20:34.097Z,70.57
2023-04-18T10:23:20.518Z,69.80
2023-04-18T10:25:47.518Z,67.56
2023-04-18T10:28:14.593Z,68.62
2023-04-18T10:30:40.995Z,69.74
2023-04-18T10:33:30.965Z,67.87
2023-04-18T10:36:01.852Z,65.39
2023-04-18T10:38:28.738Z,60.70
2023-04-18T10:41:15.275Z,62.14
2023-04-18T10:44:00.648Z,64.39
2023-04-18T10:46:32.520Z,64.43
2023-04-18T10:49:14.495Z,64.87
2023-04-18T10:51:41.485Z,65.08
2023-04-18T10:54:09.459Z,61.77
2023-04-18T10:56:36.279Z,58.26
2023-04-18T10:59:03.750Z,55.19
2023-04-18T11:01:33.306Z,54.29
2023-04-18T11:04:01.163Z,58.20
2023-04-18T11:06:28.487Z,59.22
2023-04-18T11:09:11.879Z,62.42
2023-04-18T11:11:38.422Z,63.21
2023-04-18T11:14:05.231Z,65.52
2023-04-18T11:16:32.996Z,63.89
2023-04-18T11:18:59.560Z,65.74
2023-04-18T11:21:30.311Z,67.06
2023-04-18T11:23:57.946Z,66.45
2023-04-18T11:26:25.269Z,63.66
2023-04-18T11:28:53.036Z,60.66
2023-04-18T11:31:22.328Z,58.25
2023-04-18T11:33:49.288Z,57.58
2023-04-18T11:36:16.169Z,58.70
2023-04-18T11:38:43.003Z,61.14
2023-04-18T11:41:14.501Z,62.64
2023-04-18T11:43:44.948Z,60.79
2023-04-18T11:46:13.955Z,62.51
2023-04-18T11:48:42.266Z,59.94
2023-04-18T11:51:29.294Z,57.91
2023-04-18T11:53:56.236Z,57.31
2023-04-18T11:56:22.771Z,61.04
2023-04-18T11:58:49.258Z,57.19
2023-04-18T12:01:20.037Z,58.33
2023-04-18T12:04:04.863Z,55.45
2023-04-18T12:06:50.914Z,60.33
2023-04-18T12:09:17.664Z,61.52
2023-04-18T12:11:45.056Z,59.15
2023-04-18T12:14:21.891Z,57.57
2023-04-18T12:16:51.669Z,61.08
2023-04-18T12:19:20.810Z,58.41
2023-04-18T12:22:00.788Z,58.38
2023-04-18T12:24:29.551Z,57.31
2023-04-18T12:26:57.447Z,60.79
2023-04-18T12:29:24.481Z,60.57
2023-04-18T12:31:51.422Z,56.82
2023-04-18T12:34:18.002Z,54.60
2023-04-18T12:36:44.545Z,54.90
2023-04-18T12:39:11.246Z,61.32
2023-04-18T12:41:37.780Z,59.61
2023-04-18T12:44:04.294Z,60.26
2023-04-18T12:46:31.366Z,62.26
2023-04-18T12:48:58.171Z,62.28
2023-04-18T12:51:26.619Z,56.55
2023-04-18T12:53:53.285Z,55.10
2023-04-18T12:56:19.902Z,58.23
2023-04-18T12:58:46.779Z,57.10
2023-04-18T13:01:15.210Z,58.51
2023-04-18T13:03:42.257Z,59.88
2023-04-18T13:06:08.920Z,59.34
2023-04-18T13:08:35.590Z,59.71
2023-04-18T13:11:03.708Z,58.98
2023-04-18T13:13:30.827Z,57.78
2023-04-18T13:15:57.237Z,52.87
2023-04-18T13:18:23.676Z,52.44
2023-04-18T13:20:50.593Z,59.61
2023-04-18T13:23:17.817Z,60.01
2023-04-18T13:25:44.502Z,57.65
2023-04-18T13:28:11.152Z,57.99
2023-04-18T13:30:37.589Z,55.28
2023-04-18T13:33:04.444Z,61.04
2023-04-18T13:35:31.418Z,61.60
2023-04-18T13:37:57.863Z,61.11
2023-04-18T13:40:25.766Z,61.21
2023-04-18T13:42:52.808Z,62.01
2023-04-18T13:45:19.347Z,62.30
2023-04-18T13:47:46.192Z,59.93
2023-04-18T13:50:13.065Z,61.28
2023-04-18T13:52:39.705Z,61.59
2023-04-18T13:55:08.301Z,59.44
2023-04-18T13:57:35.948Z,58.18
2023-04-18T14:00:05.103Z,57.56
2023-04-18T14:02:32.124Z,55.35
2023-04-18T14:04:59.363Z,53.01
2023-04-18T14:07:26.428Z,55.78
2023-04-18T14:09:53.985Z,57.70
2023-04-18T14:12:20.970Z,60.89
2023-04-18T14:14:48.032Z,59.94
2023-04-18T14:17:14.474Z,56.92
2023-04-18T14:19:40.891Z,55.77
2023-04-18T14:22:07.982Z,54.63
2023-04-18T14:24:37.486Z,56.47
2023-04-18T14:27:04.643Z,57.71
2023-04-18T14:29:31.193Z,55.70
2023-04-18T14:31:57.782Z,55.50
2023-04-18T14:34:24.735Z,58.12
2023-04-18T14:36:51.544Z,55.61
2023-04-18T14:39:17.938Z,56.87
2023-04-18T14:41:46.171Z,54.38
2023-04-18T14:44:14.635Z,53.92
2023-04-18T14:46:44.108Z,54.47
2023-04-18T14:49:12.869Z,53.09
2023-04-18T14:51:39.381Z,55.39
2023-04-18T14:54:06.641Z,57.65
2023-04-18T14:56:35.556Z,58.88
2023-04-18T14:59:02.797Z,57.13
2023-04-18T15:01:29.748Z,58.67
2023-04-18T15:04:06.006Z,59.33
2023-04-18T15:06:44.375Z,58.07
2023-04-18T15:09:11.267Z,58.13
2023-04-18T15:11:38.315Z,57.37
2023-04-18T15:14:05.068Z,58.12
2023-04-18T15:16:32.489Z,57.49
2023-04-18T15:19:00.573Z,56.73
2023-04-18T15:21:33.539Z,56.96
2023-04-18T15:24:01.190Z,56.21
2023-04-18T15:26:28.126Z,53.50
2023-04-18T15:28:56.235Z,53.72
2023-04-18T15:31:24.280Z,53.28
2023-04-18T15:33:51.231Z,53.81
2023-04-18T15:36:18.342Z,53.65
2023-04-18T15:38:46.639Z,56.42
2023-04-18T15:41:13.430Z,58.86
2023-04-18T15:43:58.980Z,57.85
2023-04-18T15:46:25.931Z,56.07
2023-04-18T15:48:53.600Z,56.93
2023-04-18T15:51:22.433Z,55.71
2023-04-18T15:53:49.129Z,55.59
2023-04-18T15:56:17.345Z,54.27
2023-04-18T15:58:44.087Z,53.39
2023-04-18T16:01:19.008Z,53.01
2023-04-18T16:03:45.945Z,52.89
2023-04-18T16:06:19.580Z,52.86
2023-04-18T16:08:46.279Z,55.01
2023-04-18T16:11:21.629Z,56.80
2023-04-18T16:13:49.165Z,54.94
2023-04-18T16:16:17.081Z,55.96
2023-04-18T16:18:46.211Z,57.38
2023-04-18T16:21:13.767Z,55.09
2023-04-18T16:23:40.652Z,53.64
2023-04-18T16:26:08.614Z,54.20
2023-04-18T16:28:38.422Z,54.91
2023-04-18T16:31:20.606Z,54.47
2023-04-18T16:33:47.420Z,53.49
2023-04-18T16:36:14.191Z,56.40
2023-04-18T16:38:41.083Z,58.03
2023-04-18T16:41:09.303Z,56.28
2023-04-18T16:43:36.686Z,56.06
2023-04-18T16:46:04.436Z,57.31
2023-04-18T16:48:31.651Z,58.90
2023-04-18T16:51:23.546Z,60.32
2023-04-18T16:53:50.354Z,61.94
2023-04-18T16:56:17.096Z,59.17
2023-04-18T16:58:43.896Z,61.61
2023-04-18T17:01:10.704Z,65.38
2023-04-18T17:03:44.266Z,64.07
2023-04-18T17:06:12.595Z,65.71
2023-04-18T17:08:40.789Z,66.43
2023-04-18T17:11:08.012Z,64.19
2023-04-18T17:13:36.061Z,64.46
2023-04-18T17:16:03.377Z,63.18
2023-04-18T17:18:30.192Z,62.44
2023-04-18T17:20:56.943Z,62.03
2023-04-18T17:23:24.328Z,60.90
2023-04-18T17:25:51.348Z,62.19
2023-04-18T17:28:19.450Z,64.13
2023-04-18T17:30:46.651Z,62.52
2023-04-18T17:33:13.862Z,61.60
2023-04-18T17:35:43.271Z,61.74
2023-04-18T17:38:11.613Z,61.63
2023-04-18T17:40:40.389Z,61.63
2023-04-18T17:43:07.527Z,59.86
2023-04-18T17:45:53.740Z,60.56
2023-04-18T17:48:20.361Z,63.98
2023-04-18T17:51:05.865Z,64.86
2023-04-18T17:53:32.668Z,67.47
2023-04-18T17:56:00.581Z,64.82
2023-04-18T17:58:30.636Z,65.29
2023-04-18T18:00:57.543Z,65.90
2023-04-18T18:03:25.007Z,67.48
2023-04-18T18:05:53.413Z,67.74
2023-04-18T18:08:22.222Z,66.45
2023-04-18T18:10:49.907Z,70.20
2023-04-18T18:13:21.423Z,69.14
2023-04-18T18:15:57.888Z,68.40
2023-04-18T18:18:25.273Z,67.90
2023-04-18T18:20:52.665Z,68.43
2023-04-18T18:23:22.988Z,68.76
2023-04-18T18:25:51.339Z,69.05
2023-04-18T18:28:18.693Z,69.35
2023-04-18T18:30:47.627Z,70.29
2023-04-18T18:33:15.173Z,71.32
2023-04-18T18:35:41.952Z,70.74
2023-04-18T18:38:10.273Z,70.05
2023-04-18T18:40:39.702Z,70.20
2023-04-18T18:43:07.864Z,69.37
2023-04-18T18:45:36.865Z,68.99
2023-04-18T18:48:06.941Z,68.91
2023-04-18T18:50:35.765Z,67.43
2023-04-18T18:53:03.024Z,66.36
2023-04-18T18:55:30.391Z,67.74
2023-04-18T18:58:01.611Z,66.41
2023-04-18T19:00:30.555Z,66.06
2023-04-18T19:02:58.717Z,62.24
2023-04-18T19:05:27.473Z,59.68
2023-04-18T19:07:57.460Z,60.04
2023-04-18T19:10:25.106Z,59.47
2023-04-18T19:12:53.347Z,60.97
2023-04-18T19:15:21.050Z,60.28
2023-04-18T19:17:51.771Z,62.80
2023-04-18T19:20:19.438Z,59.61
2023-04-18T19:22:49.151Z,58.49
2023-04-18T19:25:17.152Z,61.00
2023-04-18T19:27:46.392Z,60.81
2023-04-18T19:30:14.736Z,59.57
2023-04-18T19:32:43.551Z,61.01
2023-04-18T19:35:14.003Z,61.96
2023-04-18T19:37:41.979Z,61.03
2023-04-18T19:40:09.767Z,62.83
2023-04-18T19:42:37.322Z,65.91
2023-04-18T19:45:05.728Z,66.63
2023-04-18T19:47:34.988Z,69.85
2023-04-18T19:50:07.623Z,67.25
2023-04-18T19:52:36.088Z,68.88
2023-04-18T19:55:05.010Z,72.25
2023-04-18T19:57:32.633Z,68.68
2023-04-18T20:00:00.069Z,70.37
2023-04-18T20:02:27.486Z,67.35
2023-04-18T20:04:56.804Z,69.88
2023-04-18T20:07:26.118Z,69.34
2023-04-18T20:09:54.275Z,71.29
2023-04-18T20:12:23.541Z,73.41
2023-04-18T20:14:53.849Z,70.56
2023-04-18T20:17:24.442Z,70.15
2023-04-18T20:19:53.956Z,70.17
2023-04-18T20:22:21.916Z,68.70
2023-04-18T20:24:49.471Z,66.30
2023-04-18T20:27:24.110Z,67.53
2023-04-18T20:29:54.161Z,68.93
2023-04-18T20:32:22.897Z,67.82
2023-04-18T20:34:54.000Z,66.58
2023-04-18T20:37:26.019Z,65.11
2023-04-18T20:39:56.411Z,65.03
2023-04-18T20:42:23.912Z,64.76
2023-04-18T20:44:50.935Z,64.87
2023-04-18T20:47:19.209Z,64.64
2023-04-18T20:49:45.741Z,63.62
2023-04-18T20:52:14.457Z,63.67
2023-04-18T20:54:44.807Z,64.81
2023-04-18T20:57:12.792Z,65.04
2023-04-18T20:59:40.159Z,64.71
2023-04-18T21:02:09.205Z,64.40
2023-04-18T21:04:36.153Z,64.03
2023-04-18T21:07:02.896Z,64.29
2023-04-18T21:09:31.339Z,63.00
2023-04-18T21:12:06.173Z,61.67
2023-04-18T21:14:33.331Z,62.18
2023-04-18T21:17:00.504Z,61.86
2023-04-18T21:19:28.610Z,61.84
2023-04-18T21:21:55.488Z,63.30
2023-04-18T21:24:23.444Z,63.87
2023-04-18T21:26:50.159Z,61.86
2023-04-18T21:29:16.773Z,63.08
2023-04-18T21:31:43.783Z,63.48
2023-04-18T21:34:11.375Z,64.00
2023-04-18T21:36:40.423Z,64.51
2023-04-18T21:39:08.469Z,66.20
2023-04-18T21:41:35.352Z,65.03
2023-04-18T21:44:05.284Z,64.80
2023-04-18T21:46:32.534Z,64.28
2023-04-18T21:48:59.573Z,64.06
2023-04-18T21:51:27.573Z,64.27
2023-04-18T21:53:55.887Z,64.44
2023-04-18T21:56:29.415Z,64.70
2023-04-18T21:58:56.181Z,64.73
2023-04-18T22:01:23.996Z,66.18
2023-04-18T22:03:51.090Z,66.44
2023-04-18T22:06:24.038Z,65.04
2023-04-18T22:08:51.891Z,61.87
2023-04-18T22:11:20.219Z,61.54
2023-04-18T22:13:47.589Z,60.77
2023-04-18T22:16:17.643Z,64.33
2023-04-18T22:18:44.215Z,63.04
2023-04-18T22:21:11.634Z,63.73
2023-04-18T22:24:13.809Z,65.34
2023-04-18T22:26:41.062Z,67.20
2023-04-18T22:29:09.443Z,67.63
2023-04-18T22:31:37.669Z,69.87
2023-04-18T22:34:04.765Z,69.77
2023-04-18T22:36:31.677Z,69.69
2023-04-18T22:39:00.560Z,69.00
2023-04-18T22:41:27.414Z,69.92
2023-04-18T22:43:54.227Z,68.65
2023-04-18T22:46:23.299Z,67.42
2023-04-18T22:48:54.209Z,64.21
2023-04-18T22:51:23.413Z,62.68
2023-04-18T22:53:50.324Z,65.88
2023-04-18T22:56:17.221Z,65.34
2023-04-18T22:58:43.928Z,66.51
2023-04-18T23:01:11.175Z,64.77
2023-04-18T23:03:45.864Z,63.83
2023-04-18T23:06:12.724Z,63.41
2023-04-18T23:08:41.335Z,62.60
2023-04-18T23:11:30.036Z,61.42
2023-04-18T23:13:56.859Z,60.75
2023-04-18T23:16:23.932Z,61.48
2023-04-18T23:18:50.862Z,62.58
2023-04-18T23:21:19.579Z,63.55
2023-04-18T23:23:47.296Z,66.17
2023-04-18T23:26:14.836Z,66.01
2023-04-18T23:28:51.140Z,67.76
2023-04-18T23:31:18.165Z,69.84
2023-04-18T23:33:45.566Z,69.14
2023-04-18T23:36:21.894Z,67.99
2023-04-18T23:38:49.247Z,67.30
2023-04-18T23:41:16.300Z,68.60
2023-04-18T23:43:43.031Z,69.18
2023-04-18T23:46:23.072Z,68.45
2023-04-18T23:48:49.769Z,67.17
2023-04-18T23:51:16.343Z,65.23
2023-04-18T23:53:43.473Z,65.98
2023-04-18T23:56:10.381Z,67.45
2023-04-18T23:58:37.217Z,67.10
